Time;durP1;ratioP1;P1;durP2;ratioP2;P2;SDS_P1;SDS_P2;PMS_P1;PMS_P2;Temp;Humidity;BMP_temperature;BMP_pressure;BME280_temperature;BME280_humidity;BME280_pressure;Samples;Min_cycle;Max_cycle;Signal;HPM_P1;HPM_P2
2021/09/30 00:00:51;;;;;;;2.67;1.50;;;8.60;50.80;;;;;;5012108;28;20662;-65
2021/09/30 00:03:18;;;;;;;2.50;1.97;;;8.60;51.60;;;;;;5011811;28;20211;-65
2021/09/30 00:05:45;;;;;;;6.67;1.80;;;8.60;99.10;;;;;;5012478;28;20647;-65
2021/09/30 00:08:12;;;;;;;2.60;2.00;;;8.50;99.90;;;;;;5012175;28;20231;-65
2021/09/30 00:10:45;;;;;;;3.73;2.20;;;8.60;99.90;;;;;;5012586;28;20209;-65
2021/09/30 00:13:25;;;;;;;4.77;2.17;;;8.60;55.50;;;;;;5011274;28;20207;-65
2021/09/30 00:16:07;;;;;;;4.07;2.30;;;8.60;96.30;;;;;;5012506;28;20230;-65
2021/09/30 00:32:38;;;;;;;6.27;2.97;;;8.70;99.90;;;;;;5011263;28;20633;-65
2021/09/30 00:35:19;;;;;;;4.30;3.77;;;8.70;99.90;;;;;;5011931;28;20685;-64
2021/09/30 00:40:34;;;;;;;6.87;2.90;;;8.70;99.90;;;;;;5011262;28;20293;-65
2021/09/30 00:45:53;;;;;;;7.07;2.67;;;8.70;99.90;;;;;;5010925;28;20276;-65
2021/09/30 00:48:41;;;;;;;5.40;3.20;;;8.70;99.90;;;;;;5011632;28;20233;-65
2021/09/30 00:51:16;;;;;;;6.13;2.87;;;8.70;99.90;;;;;;5012271;28;20212;-65
2021/09/30 01:19:19;;;;;;;7.43;2.90;;;8.60;99.90;;;;;;5012656;28;20225;-65
2021/09/30 02:21:15;;;;;;;8.53;2.57;;;8.50;99.90;;;;;;5005966;28;20616;-64
2021/09/30 02:29:30;;;;;;;9.57;2.67;;;8.50;99.90;;;;;;4991789;28;20224;-65
2021/09/30 03:00:02;;;;;;;4.63;3.17;;;8.20;99.90;;;;;;5013006;28;20219;-65
2021/09/30 03:02:30;;;;;;;7.63;3.00;;;8.20;99.90;;;;;;5013323;28;20212;-65
2021/09/30 03:04:57;;;;;;;6.40;3.10;;;8.10;99.90;;;;;;5012408;28;20226;-65
2021/09/30 03:07:26;;;;;;;6.73;3.50;;;8.10;99.90;;;;;;5012436;28;20214;-65
2021/09/30 03:09:54;;;;;;;7.50;3.80;;;8.10;99.90;;;;;;5013867;28;20589;-65
2021/09/30 03:12:27;;;;;;;7.00;3.60;;;8.00;99.90;;;;;;5013621;28;20206;-65
2021/09/30 03:15:03;;;;;;;11.50;3.90;;;8.10;99.90;;;;;;5013591;28;20555;-65
2021/09/30 03:17:42;;;;;;;8.27;3.60;;;8.00;99.90;;;;;;5013455;28;20652;-65
2021/09/30 03:20:27;;;;;;;7.80;3.70;;;8.00;99.90;;;;;;5013033;28;20261;-65
2021/09/30 03:22:56;;;;;;;8.40;3.97;;;8.00;99.90;;;;;;5013598;28;20211;-65
2021/09/30 03:25:24;;;;;;;7.70;3.40;;;8.00;99.90;;;;;;5012318;28;20222;-66
2021/09/30 03:27:51;;;;;;;9.27;3.43;;;8.10;99.90;;;;;;5013164;28;20231;-65
2021/09/30 03:30:18;;;;;;;10.70;3.40;;;8.10;99.90;;;;;;5013230;28;20209;-65
2021/09/30 03:32:45;;;;;;;10.33;3.67;;;8.10;99.90;;;;;;5012917;28;20261;-65
2021/09/30 03:35:12;;;;;;;9.83;3.40;;;8.10;99.90;;;;;;5011671;28;20202;-65
2021/09/30 03:37:39;;;;;;;12.73;3.50;;;8.10;99.90;;;;;;5013234;28;20228;-65
2021/09/30 03:40:08;;;;;;;9.37;3.33;;;8.10;99.90;;;;;;5013255;28;20208;-65
2021/09/30 03:42:35;;;;;;;8.37;3.20;;;8.10;99.90;;;;;;5012262;28;20274;-65
2021/09/30 03:45:01;;;;;;;7.90;3.70;;;8.10;99.90;;;;;;5012113;28;20699;-65
2021/09/30 03:47:28;;;;;;;7.13;3.47;;;8.10;99.90;;;;;;5012497;28;20212;-64
2021/09/30 03:49:55;;;;;;;10.13;3.43;;;8.00;99.90;;;;;;5013123;28;20211;-65
2021/09/30 03:52:26;;;;;;;11.17;4.03;;;8.00;99.90;;;;;;5012934;28;20208;-64
2021/09/30 03:55:05;;;;;;;8.50;4.23;;;8.10;99.90;;;;;;5012682;28;20291;-65
2021/09/30 03:57:49;;;;;;;4.77;3.20;;;8.00;99.90;;;;;;5012249;28;20209;-64
2021/09/30 04:00:15;;;;;;;10.67;3.13;;;8.10;99.90;;;;;;5011778;28;20219;-64
2021/09/30 04:02:42;;;;;;;6.70;3.50;;;8.10;99.90;;;;;;5012802;28;20214;-64
2021/09/30 04:05:09;;;;;;;5.17;3.40;;;8.00;99.90;;;;;;5011617;28;20229;-65
2021/09/30 04:07:36;;;;;;;7.73;3.20;;;7.90;99.90;;;;;;5012240;28;20211;-65
2021/09/30 04:10:03;;;;;;;8.97;3.47;;;7.90;99.90;;;;;;5011862;28;20265;-65
2021/09/30 04:12:30;;;;;;;6.93;3.27;;;7.80;99.90;;;;;;5012620;28;20668;-64
2021/09/30 04:14:58;;;;;;;8.97;3.57;;;7.80;99.90;;;;;;5009208;28;20204;-64
2021/09/30 04:17:25;;;;;;;8.80;3.30;;;7.70;1.00;;;;;;5010729;28;20227;-65
2021/09/30 04:19:51;;;;;;;6.60;3.53;;;7.70;1.00;;;;;;5011791;28;20207;-65
2021/09/30 04:22:18;;;;;;;6.87;3.37;;;7.70;1.00;;;;;;5012209;28;20214;-65
2021/09/30 04:24:47;;;;;;;6.43;3.70;;;7.70;1.00;;;;;;5011322;28;20223;-65
2021/09/30 04:27:14;;;;;;;11.37;4.20;;;7.60;1.00;;;;;;5011002;28;20243;-66
2021/09/30 04:29:40;;;;;;;8.67;3.63;;;7.60;1.00;;;;;;5008417;28;20236;-66
2021/09/30 04:32:09;;;;;;;7.60;3.73;;;7.60;1.00;;;;;;5011209;28;20261;-66
2021/09/30 04:34:35;;;;;;;6.87;3.50;;;7.60;1.00;;;;;;5011568;28;20588;-66
2021/09/30 04:37:02;;;;;;;8.03;3.57;;;7.60;1.00;;;;;;5012033;28;20210;-66
2021/09/30 04:39:29;;;;;;;7.20;3.60;;;7.60;1.00;;;;;;5012140;28;20226;-66
2021/09/30 04:41:55;;;;;;;11.37;3.83;;;7.60;1.00;;;;;;5011946;28;20207;-66
2021/09/30 04:44:22;;;;;;;9.37;4.23;;;7.60;1.00;;;;;;5011928;28;20211;-66
2021/09/30 04:46:49;;;;;;;5.90;3.23;;;7.60;1.00;;;;;;5011505;28;20293;-66
2021/09/30 04:49:17;;;;;;;5.37;3.40;;;7.60;1.00;;;;;;5011574;28;20223;-66
2021/09/30 04:51:44;;;;;;;11.53;3.33;;;7.60;1.00;;;;;;5011404;28;20272;-66
2021/09/30 04:54:11;;;;;;;12.33;3.90;;;7.60;99.90;;;;;;5010965;28;20265;-66
2021/09/30 04:56:37;;;;;;;10.50;3.40;;;7.60;99.90;;;;;;5011740;28;20218;-66
2021/09/30 04:59:04;;;;;;;8.10;3.60;;;7.60;99.90;;;;;;5010770;28;20244;-66
2021/09/30 05:01:31;;;;;;;14.27;3.67;;;7.60;99.90;;;;;;5011942;28;20249;-67
2021/09/30 05:03:58;;;;;;;7.80;3.90;;;7.60;99.90;;;;;;5010642;28;20206;-66
2021/09/30 05:06:26;;;;;;;7.00;3.50;;;7.60;99.90;;;;;;5011812;28;20226;-66
2021/09/30 05:08:57;;;;;;;8.37;2.93;;;7.60;99.90;;;;;;5010769;28;20726;-66
2021/09/30 05:11:30;;;;;;;9.43;3.17;;;7.60;99.90;;;;;;5011574;28;20210;-66
2021/09/30 05:13:58;;;;;;;7.37;3.90;;;7.60;99.90;;;;;;5011171;28;20208;-66
2021/09/30 05:16:25;;;;;;;9.47;3.33;;;7.60;99.90;;;;;;5011184;28;20563;-66
2021/09/30 05:18:54;;;;;;;17.07;3.57;;;7.60;99.90;;;;;;5010998;28;20250;-66
2021/09/30 05:21:21;;;;;;;8.17;3.20;;;7.60;99.90;;;;;;5011554;28;20577;-66
2021/09/30 05:23:51;;;;;;;9.63;3.40;;;7.60;99.90;;;;;;5010989;28;20261;-66
2021/09/30 05:26:18;;;;;;;6.73;3.23;;;7.60;99.90;;;;;;5010964;28;20223;-66
2021/09/30 05:28:45;;;;;;;11.67;3.50;;;7.60;99.90;;;;;;5009686;28;20232;-66
2021/09/30 05:31:12;;;;;;;11.57;3.13;;;7.60;99.90;;;;;;5011352;28;20215;-66
2021/09/30 05:33:39;;;;;;;7.30;3.03;;;7.60;99.90;;;;;;5009195;28;20318;-66
2021/09/30 05:36:06;;;;;;;4.57;2.90;;;7.60;99.90;;;;;;5006354;28;20229;-65
2021/09/30 05:38:33;;;;;;;9.37;3.10;;;7.60;99.90;;;;;;5010913;28;20223;-64
2021/09/30 05:41:01;;;;;;;7.33;3.10;;;7.60;99.90;;;;;;5011706;28;20216;-64
2021/09/30 05:43:30;;;;;;;10.30;3.20;;;7.60;99.90;;;;;;5012806;28;20263;-64
2021/09/30 05:45:58;;;;;;;11.33;3.87;;;7.60;99.90;;;;;;5014746;28;20736;-64
2021/09/30 05:48:25;;;;;;;8.13;3.47;;;7.60;99.90;;;;;;5014939;28;20234;-63
2021/09/30 05:50:52;;;;;;;9.50;3.30;;;7.60;99.90;;;;;;5014965;28;20630;-64
2021/09/30 05:53:19;;;;;;;8.97;3.33;;;7.50;99.90;;;;;;5014743;28;20257;-63
2021/09/30 05:55:46;;;;;;;14.43;3.60;;;7.50;99.90;;;;;;5014256;28;20207;-68
2021/09/30 05:58:14;;;;;;;10.37;3.67;;;7.60;99.90;;;;;;5014835;28;20230;-67
2021/09/30 06:00:52;;;;;;;8.57;3.37;;;7.60;99.90;;;;;;5014560;28;20230;-67
2021/09/30 06:11:45;;;;;;;7.80;3.23;;;7.70;99.90;;;;;;5014480;28;20251;-66
2021/09/30 06:14:15;;;;;;;10.33;3.80;;;7.70;70.10;;;;;;5014605;28;20208;-66
2021/09/30 06:16:47;;;;;;;9.87;3.40;;;7.70;72.90;;;;;;5014264;28;20207;-66
2021/09/30 06:19:19;;;;;;;10.70;3.60;;;7.80;12.60;;;;;;5014287;28;20234;-67
2021/09/30 06:21:46;;;;;;;8.73;3.60;;;7.80;1.00;;;;;;5014425;28;20206;-68
2021/09/30 06:24:13;;;;;;;8.90;3.37;;;7.90;1.00;;;;;;5014216;28;20261;-65
2021/09/30 06:26:40;;;;;;;10.13;3.37;;;7.90;1.00;;;;;;5013979;28;20234;-65
2021/09/30 06:29:06;;;;;;;7.17;3.37;;;7.90;1.00;;;;;;5013855;28;20236;-63
2021/09/30 06:31:34;;;;;;;12.77;3.73;;;7.90;1.00;;;;;;5013499;28;20203;-64
2021/09/30 06:34:01;;;;;;;9.97;3.60;;;8.00;99.90;;;;;;5014160;28;20651;-63
2021/09/30 06:36:28;;;;;;;9.70;3.43;;;8.00;99.90;;;;;;5013608;28;20236;-63
2021/09/30 06:38:55;;;;;;;10.40;4.03;;;8.00;99.90;;;;;;5013996;28;20233;-63
2021/09/30 06:41:21;;;;;;;11.30;3.83;;;8.10;1.00;;;;;;5013785;28;20213;-63
2021/09/30 06:43:48;;;;;;;12.33;3.97;;;8.10;99.90;;;;;;5013483;28;20699;-64
2021/09/30 06:46:15;;;;;;;7.13;3.43;;;8.20;1.00;;;;;;5013308;28;20636;-67
2021/09/30 06:48:43;;;;;;;9.13;3.77;;;8.30;99.90;;;;;;5015836;28;20258;-65
2021/09/30 06:51:10;;;;;;;9.13;3.70;;;8.30;1.00;;;;;;5015294;28;20242;-65
2021/09/30 06:53:36;;;;;;;10.33;3.57;;;8.40;1.00;;;;;;5015049;28;20239;-65
2021/09/30 06:56:05;;;;;;;7.90;3.70;;;8.50;99.90;;;;;;5014677;28;20255;-66
2021/09/30 06:58:35;;;;;;;12.97;3.83;;;8.50;99.90;;;;;;5014639;28;20239;-65
2021/09/30 07:01:02;;;;;;;13.97;3.33;;;8.60;13.30;;;;;;5013772;28;20241;-63
2021/09/30 07:03:29;;;;;;;6.60;3.13;;;8.70;99.90;;;;;;5013460;28;20203;-63
2021/09/30 07:05:57;;;;;;;11.50;3.40;;;8.70;1.00;;;;;;5012708;28;20721;-64
2021/09/30 07:08:24;;;;;;;9.33;3.60;;;8.80;99.90;;;;;;5013364;28;20232;-63
2021/09/30 07:10:50;;;;;;;10.70;4.20;;;8.80;1.00;;;;;;5012920;28;20208;-63
2021/09/30 07:13:17;;;;;;;15.10;5.20;;;8.90;99.90;;;;;;5013069;28;20217;-63
2021/09/30 07:15:44;;;;;;;8.80;3.90;;;9.00;99.90;;;;;;5012738;28;20236;-63
2021/09/30 07:18:11;;;;;;;8.93;4.00;;;9.10;1.00;;;;;;5013144;28;20234;-63
2021/09/30 07:20:38;;;;;;;11.50;3.20;;;9.20;4.40;;;;;;5013153;28;20213;-63
2021/09/30 07:23:06;;;;;;;11.57;3.47;;;9.20;1.00;;;;;;5012897;28;20257;-63
2021/09/30 07:25:33;;;;;;;10.07;4.13;;;9.30;99.90;;;;;;5012250;28;20237;-63
2021/09/30 07:28:00;;;;;;;8.23;3.67;;;9.30;94.70;;;;;;5012582;28;20787;-65
2021/09/30 07:30:26;;;;;;;10.80;4.30;;;9.40;99.90;;;;;;5013276;28;20205;-66
2021/09/30 07:32:53;;;;;;;11.17;3.50;;;9.40;1.00;;;;;;5012952;28;20209;-66
2021/09/30 07:35:20;;;;;;;9.37;3.13;;;9.50;66.80;;;;;;5012322;28;20269;-65
2021/09/30 07:37:46;;;;;;;12.73;3.57;;;9.60;1.00;;;;;;5012836;28;20234;-66
2021/09/30 07:40:15;;;;;;;7.47;3.10;;;9.70;1.00;;;;;;5012503;28;20214;-66
2021/09/30 07:42:42;;;;;;;7.57;3.50;;;9.70;1.00;;;;;;5012950;28;20211;-67
2021/09/30 07:45:09;;;;;;;11.67;3.60;;;9.80;99.90;;;;;;5012129;28;20210;-69
2021/09/30 07:47:36;;;;;;;6.87;3.37;;;9.90;99.90;;;;;;5012597;28;20711;-66
2021/09/30 07:50:04;;;;;;;6.87;3.03;;;9.90;99.90;;;;;;5012340;28;20207;-69
2021/09/30 07:52:31;;;;;;;11.77;3.83;;;10.00;99.90;;;;;;5012894;28;20583;-70
2021/09/30 07:55:00;;;;;;;7.17;4.10;;;10.10;1.00;;;;;;5011980;28;20268;-67
2021/09/30 07:57:28;;;;;;;6.70;2.67;;;10.20;1.00;;;;;;5012461;28;20238;-68
2021/09/30 07:59:55;;;;;;;8.50;3.13;;;10.30;99.90;;;;;;5012233;28;20698;-69
2021/09/30 08:02:21;;;;;;;10.17;2.70;;;10.30;99.90;;;;;;5012319;28;20245;-64
2021/09/30 08:04:49;;;;;;;9.60;2.97;;;10.40;99.90;;;;;;5011608;28;20265;-64
2021/09/30 08:07:16;;;;;;;9.13;3.00;;;10.50;1.00;;;;;;5011418;28;20261;-64
2021/09/30 08:09:43;;;;;;;5.73;2.40;;;10.60;1.00;;;;;;5012345;28;20233;-64
2021/09/30 08:12:10;;;;;;;5.87;2.30;;;10.70;1.00;;;;;;5012192;28;20273;-69
2021/09/30 08:14:38;;;;;;;6.33;2.57;;;10.80;99.90;;;;;;5011634;28;20214;-67
2021/09/30 08:17:05;;;;;;;5.33;2.67;;;10.90;99.90;;;;;;5011964;28;20203;-65
2021/09/30 08:19:32;;;;;;;4.83;2.30;;;11.00;99.90;;;;;;5011922;28;20285;-65
2021/09/30 08:21:59;;;;;;;5.57;2.50;;;11.00;99.90;;;;;;5012008;28;20618;-64
2021/09/30 08:24:25;;;;;;;6.53;2.67;;;11.10;99.90;;;;;;5012078;28;20207;-65
2021/09/30 08:26:52;;;;;;;6.87;2.40;;;11.20;99.90;;;;;;5011426;28;20288;-65
2021/09/30 08:29:21;;;;;;;11.03;2.83;;;11.20;99.90;;;;;;5011747;28;20226;-65
2021/09/30 08:31:49;;;;;;;7.80;2.70;;;11.30;99.90;;;;;;5011750;28;20211;-65
2021/09/30 08:34:15;;;;;;;8.20;2.70;;;11.40;99.90;;;;;;5011649;28;20233;-65
2021/09/30 08:36:42;;;;;;;6.57;2.50;;;11.50;99.90;;;;;;5011472;28;20256;-65
2021/09/30 08:39:10;;;;;;;9.90;2.57;;;11.50;99.90;;;;;;5011712;28;20235;-68
2021/09/30 08:41:37;;;;;;;3.53;1.80;;;11.60;91.60;;;;;;5012624;28;20215;-65
2021/09/30 08:44:05;;;;;;;13.57;2.87;;;11.60;99.90;;;;;;5013092;28;20689;-66
2021/09/30 08:46:33;;;;;;;5.93;2.67;;;11.70;99.90;;;;;;5016228;28;20589;-66
2021/09/30 08:49:03;;;;;;;8.00;2.23;;;11.80;27.70;;;;;;5013806;28;20239;-66
2021/09/30 08:51:30;;;;;;;5.00;2.20;;;11.90;17.90;;;;;;5013218;28;20629;-65
2021/09/30 08:53:57;;;;;;;6.67;2.47;;;12.00;48.10;;;;;;5010002;28;20271;-65
2021/09/30 08:56:23;;;;;;;10.27;3.10;;;12.10;21.10;;;;;;5011150;28;20210;-66
2021/09/30 08:58:51;;;;;;;6.27;2.10;;;12.20;1.00;;;;;;5011339;28;20305;-65
2021/09/30 09:01:18;;;;;;;9.13;2.00;;;12.30;1.00;;;;;;5011348;28;20690;-66
2021/09/30 09:03:47;;;;;;;5.80;2.07;;;12.30;1.00;;;;;;5011860;28;20617;-67
2021/09/30 09:06:31;;;;;;;9.43;2.00;;;12.30;1.00;;;;;;5010863;28;20219;-65
2021/09/30 09:09:19;;;;;;;13.70;2.63;;;12.30;1.00;;;;;;5011448;28;20429;-65
2021/09/30 09:11:47;;;;;;;9.83;2.27;;;12.40;1.00;;;;;;5010892;28;20239;-65
2021/09/30 09:14:21;;;;;;;7.47;2.63;;;12.40;1.00;;;;;;5011480;28;20206;-65
2021/09/30 09:16:58;;;;;;;11.00;2.43;;;12.50;1.00;;;;;;5011649;28;20229;-66
2021/09/30 09:19:33;;;;;;;11.90;2.77;;;12.40;1.00;;;;;;5015180;28;20229;-68
2021/09/30 09:22:06;;;;;;;6.10;2.43;;;12.20;1.00;;;;;;4995536;28;20257;-66
2021/09/30 09:24:33;;;;;;;11.17;2.23;;;12.20;1.00;;;;;;4995033;28;20306;-65
2021/09/30 09:27:01;;;;;;;8.37;2.57;;;12.30;1.00;;;;;;4995449;28;20234;-65
2021/09/30 09:29:30;;;;;;;6.20;2.00;;;12.40;1.00;;;;;;4995401;28;20227;-63
2021/09/30 09:31:57;;;;;;;8.50;2.40;;;12.60;1.00;;;;;;4995688;28;20301;-63
2021/09/30 09:34:27;;;;;;;5.43;1.80;;;12.70;1.00;;;;;;4995563;28;20733;-63
2021/09/30 09:36:56;;;;;;;9.63;2.27;;;12.90;1.00;;;;;;4995022;28;20250;-64
2021/09/30 09:39:35;;;;;;;9.60;2.67;;;12.90;1.00;;;;;;4995641;28;20249;-65
2021/09/30 09:42:09;;;;;;;4.53;1.80;;;13.00;1.00;;;;;;4995290;28;20222;-66
2021/09/30 09:44:50;;;;;;;9.10;2.17;;;13.00;1.00;;;;;;4994848;28;20290;-65
2021/09/30 09:47:20;;;;;;;13.50;2.10;;;13.10;1.00;;;;;;4994968;28;20802;-65
2021/09/30 09:50:09;;;;;;;4.57;1.80;;;13.10;1.00;;;;;;4996128;28;20212;-64
2021/09/30 09:52:42;;;;;;;5.53;2.80;;;13.10;1.00;;;;;;4996717;28;20208;-64
2021/09/30 09:55:14;;;;;;;12.43;3.63;;;13.20;1.00;;;;;;5002869;28;20238;-71
2021/09/30 09:57:41;;;;;;;10.00;3.10;;;13.20;1.00;;;;;;5000821;28;20216;-64
2021/09/30 10:00:13;;;;;;;8.73;2.87;;;13.20;1.00;;;;;;4996373;28;20913;-64
2021/09/30 10:02:39;;;;;;;9.50;2.17;;;13.30;1.00;;;;;;4995668;28;20242;-64
2021/09/30 10:05:07;;;;;;;4.53;2.00;;;13.40;1.00;;;;;;4994285;28;20211;-67
2021/09/30 10:07:34;;;;;;;10.17;2.60;;;13.60;1.00;;;;;;4994940;28;20228;-66
2021/09/30 10:10:00;;;;;;;5.57;2.17;;;13.80;1.00;;;;;;4994567;28;20626;-65
2021/09/30 10:12:30;;;;;;;5.50;1.83;;;13.90;1.00;;;;;;4994841;28;20219;-66
2021/09/30 10:14:56;;;;;;;9.70;1.97;;;14.10;1.00;;;;;;4994253;28;20204;-65
2021/09/30 10:17:23;;;;;;;8.60;1.80;;;14.10;1.00;;;;;;4994799;28;20304;-64
2021/09/30 10:19:50;;;;;;;5.07;1.53;;;14.10;1.00;;;;;;4994720;28;20212;-65
2021/09/30 10:22:17;;;;;;;5.47;1.57;;;14.10;1.00;;;;;;4994602;28;20238;-67
2021/09/30 10:24:44;;;;;;;8.07;2.47;;;14.30;1.00;;;;;;4994230;28;20211;-65
2021/09/30 10:27:13;;;;;;;3.67;1.53;;;14.40;1.00;;;;;;4994566;28;20593;-65
2021/09/30 10:29:45;;;;;;;5.63;1.90;;;14.40;1.00;;;;;;4994118;28;20231;-65
2021/09/30 10:32:13;;;;;;;8.73;1.83;;;14.50;1.00;;;;;;4994765;28;20203;-65
2021/09/30 10:34:42;;;;;;;9.23;1.77;;;14.60;1.00;;;;;;4994045;28;20220;-66
2021/09/30 10:37:25;;;;;;;7.47;2.13;;;14.60;1.00;;;;;;4993433;28;20266;-65
2021/09/30 10:40:14;;;;;;;8.23;1.90;;;14.60;99.90;;;;;;4994419;28;20214;-65
2021/09/30 10:42:44;;;;;;;4.03;1.17;;;14.50;99.90;;;;;;4994184;28;20294;-68
2021/09/30 10:45:14;;;;;;;8.87;1.50;;;14.40;99.90;;;;;;4993363;28;20211;-65
2021/09/30 10:47:40;;;;;;;4.60;1.27;;;14.40;99.90;;;;;;4993929;28;20224;-68
2021/09/30 10:50:08;;;;;;;4.20;1.37;;;14.20;99.90;;;;;;4994166;28;20258;-69
2021/09/30 10:52:49;;;;;;;9.87;1.60;;;14.30;99.90;;;;;;4994275;28;20656;-69
2021/09/30 10:55:31;;;;;;;5.97;1.40;;;14.30;99.90;;;;;;4993554;28;20257;-66
2021/09/30 10:58:01;;;;;;;5.70;2.17;;;14.20;99.90;;;;;;4993747;28;20228;-66
2021/09/30 11:00:49;;;;;;;3.50;1.27;;;14.20;99.90;;;;;;4994029;28;20219;-66
2021/09/30 11:03:21;;;;;;;7.10;1.37;;;14.40;99.90;;;;;;4994004;28;20207;-67
2021/09/30 11:06:12;;;;;;;4.90;1.53;;;14.40;99.90;;;;;;4993174;28;20215;-67
2021/09/30 11:08:39;;;;;;;5.20;1.40;;;14.40;99.90;;;;;;4993434;28;20318;-67
2021/09/30 11:11:11;;;;;;;4.73;1.50;;;14.40;99.90;;;;;;4993780;28;20212;-66
2021/09/30 11:13:40;;;;;;;4.00;1.07;;;14.40;99.90;;;;;;4993772;28;20210;-67
2021/09/30 11:16:11;;;;;;;6.13;1.57;;;14.60;99.90;;;;;;4993129;28;20234;-65
2021/09/30 11:18:43;;;;;;;6.40;1.87;;;14.60;99.90;;;;;;4993432;28;20277;-63
2021/09/30 11:21:46;;;;;;;6.43;1.87;;;14.40;99.90;;;;;;4993619;28;20216;-62
2021/09/30 11:24:31;;;;;;;6.37;1.83;;;14.40;99.90;;;;;;4953079;29;20299;-62
2021/09/30 11:27:06;;;;;;;5.57;1.20;;;14.40;99.90;;;;;;4990424;28;20228;-62
2021/09/30 11:29:33;;;;;;;6.77;1.10;;;14.60;99.90;;;;;;4993629;28;20250;-63
2021/09/30 11:32:25;;;;;;;5.83;1.20;;;14.70;99.90;;;;;;4993779;28;20218;-61
2021/09/30 11:34:53;;;;;;;4.53;1.60;;;14.90;99.90;;;;;;5001120;28;20209;-64
2021/09/30 11:37:24;;;;;;;4.27;1.30;;;15.00;99.90;;;;;;5012928;28;20207;-65
2021/09/30 11:39:53;;;;;;;7.43;1.43;;;14.90;99.90;;;;;;5012273;28;20742;-65
2021/09/30 11:42:21;;;;;;;3.90;1.07;;;14.70;99.90;;;;;;5012499;28;20207;-65
2021/09/30 11:44:59;;;;;;;7.10;1.40;;;14.50;99.90;;;;;;5012450;28;20229;-64
2021/09/30 11:47:29;;;;;;;5.43;1.60;;;14.50;99.90;;;;;;5012652;28;20297;-63
2021/09/30 11:49:57;;;;;;;6.40;1.10;;;14.60;99.90;;;;;;5012429;28;20210;-65
2021/09/30 11:52:24;;;;;;;5.47;1.50;;;14.60;99.90;;;;;;5012621;28;20687;-66
2021/09/30 11:54:50;;;;;;;3.00;1.33;;;14.50;99.90;;;;;;5012340;28;20215;-65
2021/09/30 11:57:20;;;;;;;6.70;1.07;;;14.50;99.90;;;;;;5012687;28;20881;-65
2021/09/30 11:59:46;;;;;;;3.43;1.17;;;14.60;99.90;;;;;;5012775;28;20285;-64
2021/09/30 12:02:14;;;;;;;7.97;1.30;;;14.60;99.90;;;;;;5012649;28;20215;-67
2021/09/30 12:04:45;;;;;;;5.37;1.20;;;14.60;99.90;;;;;;5012136;28;20229;-66
2021/09/30 12:07:16;;;;;;;7.20;1.17;;;14.70;99.90;;;;;;5012644;28;20616;-67
2021/09/30 12:09:44;;;;;;;5.27;1.40;;;14.80;99.90;;;;;;5012414;28;20328;-67
2021/09/30 12:12:11;;;;;;;4.40;1.50;;;14.80;99.90;;;;;;5012340;28;20211;-62
2021/09/30 12:14:39;;;;;;;5.40;1.10;;;14.90;99.90;;;;;;5012108;28;20207;-62
2021/09/30 12:17:09;;;;;;;4.80;1.33;;;14.90;99.90;;;;;;5011861;28;20207;-62
2021/09/30 12:19:39;;;;;;;3.47;1.13;;;14.90;99.90;;;;;;5012371;28;20226;-69
2021/09/30 12:22:11;;;;;;;5.37;1.30;;;15.00;99.90;;;;;;5012552;28;20217;-68
2021/09/30 12:24:42;;;;;;;4.33;1.00;;;15.00;99.90;;;;;;5012219;28;20195;-67
2021/09/30 12:27:09;;;;;;;7.63;1.30;;;15.10;99.90;;;;;;5012399;28;20234;-67
2021/09/30 12:29:41;;;;;;;5.37;1.00;;;15.30;99.90;;;;;;5011910;28;20235;-67
2021/09/30 12:32:10;;;;;;;4.20;1.03;;;15.30;99.90;;;;;;5012076;28;20241;-68
2021/09/30 12:34:38;;;;;;;5.17;1.10;;;15.30;99.90;;;;;;5011670;28;20586;-63
2021/09/30 12:37:05;;;;;;;4.67;1.23;;;15.40;99.90;;;;;;5012050;28;20203;-63
2021/09/30 12:39:34;;;;;;;6.50;1.00;;;15.20;99.90;;;;;;5011867;28;20227;-64
2021/09/30 12:42:16;;;;;;;4.47;1.30;;;15.10;99.90;;;;;;5012005;28;20754;-63
2021/09/30 12:44:48;;;;;;;2.97;1.00;;;15.00;99.90;;;;;;5011315;28;20618;-64
2021/09/30 12:47:32;;;;;;;5.93;1.17;;;14.90;99.90;;;;;;5011896;28;20227;-65
2021/09/30 12:50:06;;;;;;;7.80;1.17;;;14.80;99.90;;;;;;5011758;28;20210;-65
2021/09/30 12:52:33;;;;;;;6.53;1.00;;;14.70;99.90;;;;;;5011236;28;20276;-64
2021/09/30 12:55:05;;;;;;;5.90;0.83;;;14.60;99.90;;;;;;5011262;28;20687;-65
2021/09/30 12:57:33;;;;;;;4.80;1.00;;;14.50;99.90;;;;;;5010779;28;20276;-64
2021/09/30 13:00:13;;;;;;;4.57;0.77;;;14.40;99.90;;;;;;5011174;28;20306;-64
2021/09/30 13:02:41;;;;;;;3.93;0.90;;;14.50;99.90;;;;;;5011804;28;20233;-64
2021/09/30 13:05:09;;;;;;;6.20;1.13;;;14.60;99.90;;;;;;5011057;28;20241;-64
2021/09/30 13:07:51;;;;;;;3.50;0.70;;;14.50;99.90;;;;;;5012098;28;20249;-64
2021/09/30 13:10:27;;;;;;;8.93;4.57;;;14.50;99.90;;;;;;5011911;28;20210;-64
2021/09/30 13:13:03;;;;;;;8.03;3.10;;;14.50;99.90;;;;;;5012123;28;20272;-64
2021/09/30 13:15:34;;;;;;;3.93;1.60;;;14.60;99.90;;;;;;5011311;28;20214;-64
2021/09/30 13:18:02;;;;;;;8.70;1.30;;;14.60;99.90;;;;;;5012113;28;20281;-64
2021/09/30 13:20:30;;;;;;;4.77;0.93;;;14.70;99.90;;;;;;5011853;28;20210;-64
2021/09/30 13:22:57;;;;;;;6.17;1.27;;;14.80;99.90;;;;;;5011798;28;20211;-64
2021/09/30 13:25:25;;;;;;;7.27;1.37;;;14.90;99.90;;;;;;5010986;28;20210;-64
2021/09/30 13:27:53;;;;;;;4.83;1.57;;;15.00;99.90;;;;;;5011308;28;20618;-64
2021/09/30 13:30:22;;;;;;;2.97;1.03;;;15.00;99.90;;;;;;5011375;28;20238;-64
2021/09/30 13:32:51;;;;;;;5.37;1.30;;;15.10;99.90;;;;;;5011753;28;20214;-65
2021/09/30 13:35:18;;;;;;;6.03;2.63;;;15.00;99.90;;;;;;5011033;28;20634;-64
2021/09/30 13:37:45;;;;;;;8.47;4.97;;;15.00;99.90;;;;;;5011414;28;20227;-64
2021/09/30 13:40:13;;;;;;;11.03;5.30;;;15.00;99.90;;;;;;5011537;28;20207;-64
2021/09/30 13:42:41;;;;;;;5.37;1.13;;;14.90;99.90;;;;;;5011377;28;20628;-64
2021/09/30 13:45:10;;;;;;;7.47;2.07;;;14.90;99.90;;;;;;5010913;28;20207;-65
2021/09/30 13:47:37;;;;;;;4.67;1.80;;;14.80;99.90;;;;;;5011261;28;20231;-65
2021/09/30 13:50:06;;;;;;;5.60;2.90;;;14.70;99.90;;;;;;5010832;28;20207;-65
2021/09/30 13:52:33;;;;;;;4.37;1.20;;;14.50;99.90;;;;;;5009534;28;20257;-65
2021/09/30 13:55:00;;;;;;;7.50;2.70;;;14.50;99.90;;;;;;5010434;28;20253;-64
2021/09/30 13:57:26;;;;;;;6.30;1.97;;;14.30;99.90;;;;;;5011494;28;20257;-65
2021/09/30 13:59:54;;;;;;;7.53;2.20;;;14.30;99.90;;;;;;5011204;28;20214;-65
2021/09/30 14:02:21;;;;;;;7.77;1.93;;;14.30;99.90;;;;;;5011210;28;20210;-65
2021/09/30 14:04:48;;;;;;;5.10;1.80;;;14.20;99.90;;;;;;5012883;28;20678;-65
2021/09/30 14:07:15;;;;;;;7.30;2.03;;;14.20;99.90;;;;;;5014748;28;20213;-64
2021/09/30 14:09:41;;;;;;;6.60;1.30;;;14.10;99.90;;;;;;5014777;28;20309;-64
2021/09/30 14:12:08;;;;;;;10.80;1.67;;;14.00;99.90;;;;;;5015209;28;20207;-65
2021/09/30 14:14:35;;;;;;;5.93;1.53;;;13.90;99.90;;;;;;5014360;28;20219;-64
2021/09/30 14:17:04;;;;;;;6.67;1.10;;;13.80;99.90;;;;;;5014628;28;20788;-65
2021/09/30 14:19:30;;;;;;;7.70;1.20;;;13.80;99.90;;;;;;5014564;28;20223;-64
2021/09/30 14:21:58;;;;;;;3.33;0.93;;;13.90;99.90;;;;;;5014552;28;20218;-65
2021/09/30 14:24:25;;;;;;;5.47;1.20;;;13.90;99.90;;;;;;5014195;28;20676;-65
2021/09/30 14:26:52;;;;;;;5.03;1.03;;;13.90;99.90;;;;;;5014431;28;20207;-64
2021/09/30 14:29:18;;;;;;;6.70;1.13;;;14.00;99.90;;;;;;5014148;28;20703;-65
2021/09/30 14:31:45;;;;;;;4.50;1.47;;;14.00;99.90;;;;;;5014713;28;20257;-65
2021/09/30 14:34:13;;;;;;;6.13;1.13;;;14.10;99.90;;;;;;5014534;28;20233;-64
2021/09/30 14:36:40;;;;;;;6.30;1.43;;;14.00;99.90;;;;;;5013695;28;20207;-64
2021/09/30 14:39:06;;;;;;;5.23;1.13;;;14.10;99.90;;;;;;5014078;28;20231;-64
2021/09/30 14:41:34;;;;;;;4.33;1.07;;;14.10;99.90;;;;;;5014435;28;20206;-65
2021/09/30 14:44:01;;;;;;;6.87;1.40;;;14.10;99.90;;;;;;5014407;28;20207;-64
2021/09/30 14:46:27;;;;;;;5.63;1.40;;;14.20;99.90;;;;;;5013627;28;20207;-69
2021/09/30 14:48:54;;;;;;;4.07;1.03;;;14.20;99.90;;;;;;5014054;28;20231;-65
2021/09/30 14:51:22;;;;;;;5.87;1.10;;;14.20;99.90;;;;;;5013997;28;20284;-65
2021/09/30 14:53:48;;;;;;;5.20;0.97;;;14.10;99.90;;;;;;5007611;28;20264;-64
2021/09/30 14:56:15;;;;;;;8.23;1.23;;;14.10;99.90;;;;;;5013631;28;20211;-63
2021/09/30 14:58:42;;;;;;;4.97;1.57;;;14.10;99.90;;;;;;5013468;28;20226;-63
2021/09/30 15:01:09;;;;;;;7.37;1.30;;;14.10;99.90;;;;;;5013965;28;20211;-67
2021/09/30 15:03:35;;;;;;;7.13;1.37;;;14.20;99.90;;;;;;5013710;28;20211;-66
2021/09/30 15:06:03;;;;;;;3.77;1.37;;;14.20;99.90;;;;;;5013269;28;20207;-63
2021/09/30 15:08:31;;;;;;;9.83;1.90;;;14.20;99.90;;;;;;5013695;28;20258;-65
2021/09/30 15:10:58;;;;;;;5.63;1.70;;;14.10;99.90;;;;;;5013738;28;20207;-63
2021/09/30 15:13:24;;;;;;;3.63;1.00;;;14.20;99.90;;;;;;5013783;28;20273;-63
2021/09/30 15:15:51;;;;;;;5.33;1.40;;;14.10;99.90;;;;;;5013044;28;20215;-63
2021/09/30 15:18:27;;;;;;;5.27;1.70;;;14.10;99.90;;;;;;5013474;28;20569;-64
2021/09/30 15:23:40;;;;;;;3.67;1.33;;;13.90;99.90;;;;;;5013477;28;20198;-62
2021/09/30 15:26:06;;;;;;;4.37;1.63;;;13.80;99.90;;;;;;5012897;28;20214;-64
2021/09/30 15:28:34;;;;;;;4.10;1.70;;;13.80;99.90;;;;;;5013141;28;20231;-63
2021/09/30 15:31:01;;;;;;;8.17;1.53;;;13.80;99.90;;;;;;5013136;28;20261;-64
2021/09/30 15:33:28;;;;;;;6.33;1.50;;;13.70;99.90;;;;;;5013175;28;20207;-64